createdAt,value
2024-02-13T00:00:27.858Z,22.85
2024-02-13T00:02:56.023Z,22.95
2024-02-13T00:05:23.877Z,23.88
2024-02-13T00:07:52.252Z,25.98
2024-02-13T00:10:22.542Z,29.08
2024-02-13T00:12:52.906Z,30.40
2024-02-13T00:15:21.919Z,28.52
2024-02-13T00:17:52.358Z,28.25
2024-02-13T00:22:48.918Z,28.90
2024-02-13T00:25:17.717Z,32.25
2024-02-13T00:27:48.030Z,26.35
2024-02-13T00:30:16.301Z,27.25
2024-02-13T00:32:44.105Z,27.80
2024-02-13T00:35:11.888Z,29.67
2024-02-13T00:37:40.571Z,29.92
2024-02-13T00:40:11.820Z,30.90
2024-02-13T00:42:40.408Z,28.15
2024-02-13T00:45:13.086Z,32.45
2024-02-13T00:47:42.555Z,28.25
2024-02-13T00:50:10.986Z,31.55
2024-02-13T00:52:41.264Z,27.75
2024-02-13T00:55:09.767Z,29.55
2024-02-13T00:57:37.935Z,28.13
2024-02-13T01:00:10.611Z,30.50
2024-02-13T01:02:40.586Z,30.20
2024-02-13T01:05:09.088Z,30.05
2024-02-13T01:07:37.920Z,29.38
2024-02-13T01:10:07.637Z,28.25
2024-02-13T01:12:35.417Z,30.42
2024-02-13T01:15:03.806Z,31.05
2024-02-13T01:17:32.012Z,25.83
2024-02-13T01:20:01.236Z,27.13
2024-02-13T01:22:29.266Z,28.58
2024-02-13T01:24:57.126Z,28.10
2024-02-13T01:27:25.126Z,24.65
2024-02-13T01:29:53.203Z,27.85
2024-02-13T01:32:21.132Z,23.60
2024-02-13T01:34:49.343Z,24.00
2024-02-13T01:37:18.814Z,22.25
2024-02-13T01:39:47.065Z,24.15
2024-02-13T01:42:14.786Z,24.42
2024-02-13T01:44:42.888Z,21.73
2024-02-13T01:47:10.711Z,24.40
2024-02-13T01:49:39.081Z,24.13
2024-02-13T01:52:08.193Z,27.30
2024-02-13T01:54:37.627Z,20.90
2024-02-13T01:57:06.601Z,24.70
2024-02-13T01:59:39.943Z,23.85
2024-02-13T02:02:10.149Z,23.30
2024-02-13T02:04:41.603Z,22.55
2024-02-13T02:07:10.170Z,23.10
2024-02-13T02:09:39.306Z,18.65
2024-02-13T02:12:07.578Z,19.50
2024-02-13T02:14:35.556Z,23.13
2024-02-13T02:17:10.749Z,23.98
2024-02-13T02:19:39.471Z,21.98
2024-02-13T02:22:08.312Z,20.45
2024-02-13T02:24:36.871Z,21.17
2024-02-13T02:27:06.278Z,23.67
2024-02-13T02:29:34.468Z,22.27
2024-02-13T02:32:02.265Z,19.40
2024-02-13T02:34:30.332Z,19.25
2024-02-13T02:36:58.517Z,26.77
2024-02-13T02:39:26.454Z,20.80
2024-02-13T02:41:54.206Z,19.83
2024-02-13T02:44:23.416Z,21.70
2024-02-13T02:46:51.478Z,17.92
2024-02-13T02:49:20.191Z,20.13
2024-02-13T02:51:48.735Z,19.45
2024-02-13T02:54:16.736Z,22.92
2024-02-13T02:56:44.946Z,19.02
2024-02-13T02:59:13.930Z,20.77
2024-02-13T03:01:43.460Z,19.98
2024-02-13T03:04:12.004Z,17.77
2024-02-13T03:06:42.359Z,18.55
2024-02-13T03:09:10.293Z,18.17
2024-02-13T03:11:38.555Z,17.70
2024-02-13T03:14:06.900Z,17.52
2024-02-13T03:16:36.090Z,18.58
2024-02-13T03:19:07.288Z,17.20
2024-02-13T03:21:36.309Z,17.13
2024-02-13T03:24:04.626Z,18.13
2024-02-13T03:26:33.974Z,14.20
2024-02-13T03:29:03.462Z,13.15
2024-02-13T03:31:31.520Z,14.40
2024-02-13T03:33:59.269Z,17.27
2024-02-13T03:36:28.369Z,15.57
2024-02-13T03:38:56.398Z,18.25
2024-02-13T03:41:24.621Z,13.57
2024-02-13T03:43:52.324Z,14.90
2024-02-13T03:46:20.135Z,14.00
2024-02-13T03:48:47.999Z,18.95
2024-02-13T03:51:15.836Z,14.65
2024-02-13T03:53:46.552Z,13.65
2024-02-13T03:56:14.355Z,13.90
2024-02-13T03:58:42.504Z,12.80
2024-02-13T04:01:11.034Z,12.20
2024-02-13T04:03:39.189Z,12.73
2024-02-13T04:06:09.843Z,11.57
2024-02-13T04:08:38.071Z,17.63
2024-02-13T04:11:07.559Z,12.15
2024-02-13T04:13:35.663Z,10.32
2024-02-13T04:16:03.430Z,13.77
2024-02-13T04:18:31.648Z,11.27
2024-02-13T04:20:59.759Z,14.90
2024-02-13T04:23:28.722Z,9.10
2024-02-13T04:25:56.623Z,14.25
2024-02-13T04:28:26.060Z,7.80
2024-02-13T04:30:54.131Z,10.43
2024-02-13T04:33:22.458Z,9.07
2024-02-13T04:35:50.353Z,12.50
2024-02-13T04:38:19.273Z,9.43
2024-02-13T04:40:47.208Z,10.30
2024-02-13T04:43:14.885Z,10.82
2024-02-13T04:45:44.315Z,7.70
2024-02-13T04:48:14.442Z,9.50
2024-02-13T04:50:42.911Z,8.68
2024-02-13T04:53:11.075Z,12.10
2024-02-13T04:55:39.832Z,7.30
2024-02-13T04:58:09.004Z,11.43
2024-02-13T05:00:38.704Z,9.77
2024-02-13T05:03:18.379Z,12.55
2024-02-13T05:06:03.754Z,9.23
2024-02-13T05:08:32.172Z,86.50
2024-02-13T05:10:59.880Z,12.63
2024-02-13T05:13:28.059Z,12.90
2024-02-13T05:15:55.756Z,10.52
2024-02-13T05:18:24.916Z,8.82
2024-02-13T05:20:53.218Z,8.43
2024-02-13T05:23:22.197Z,8.45
2024-02-13T05:25:50.652Z,8.38
2024-02-13T05:28:18.743Z,10.63
2024-02-13T05:30:46.518Z,9.30
2024-02-13T05:33:14.409Z,9.95
2024-02-13T05:35:46.015Z,9.68
2024-02-13T05:38:13.993Z,8.38
2024-02-13T05:40:43.479Z,7.00
2024-02-13T05:43:12.743Z,9.68
2024-02-13T05:45:40.569Z,9.95
2024-02-13T05:48:10.735Z,7.40
2024-02-13T05:50:39.064Z,9.80
2024-02-13T05:53:08.506Z,9.65
2024-02-13T05:55:36.572Z,7.88
2024-02-13T05:58:04.756Z,11.77
2024-02-13T06:00:33.956Z,16.77
2024-02-13T06:03:02.389Z,10.70
2024-02-13T06:05:31.361Z,11.02
2024-02-13T06:07:59.228Z,8.77
2024-02-13T06:10:28.757Z,8.75
2024-02-13T06:12:57.889Z,10.45
2024-02-13T06:15:27.157Z,12.13
2024-02-13T06:17:55.257Z,12.35
2024-02-13T06:20:23.964Z,14.75
2024-02-13T06:22:51.672Z,9.13
2024-02-13T06:25:19.935Z,13.50
2024-02-13T06:27:49.405Z,11.82
2024-02-13T06:30:18.608Z,14.23
2024-02-13T06:32:46.712Z,11.88
2024-02-13T06:35:15.994Z,12.48
2024-02-13T06:37:44.863Z,11.73
2024-02-13T06:40:13.802Z,11.80
2024-02-13T06:42:41.821Z,12.23
2024-02-13T06:45:12.098Z,15.57
2024-02-13T06:50:13.547Z,14.73
2024-02-13T06:52:42.777Z,15.32
2024-02-13T06:55:11.728Z,13.27
2024-02-13T06:57:39.420Z,14.65
2024-02-13T07:00:10.826Z,15.18
2024-02-13T07:02:40.110Z,20.23
2024-02-13T07:05:09.887Z,12.68
2024-02-13T07:07:46.151Z,20.25
2024-02-13T07:10:17.696Z,17.33
2024-02-13T07:12:45.930Z,15.57
2024-02-13T07:15:13.865Z,13.27
2024-02-13T07:17:52.587Z,15.07
2024-02-13T07:20:27.943Z,17.20
2024-02-13T07:22:56.370Z,16.35
2024-02-13T07:25:24.507Z,15.48
2024-02-13T07:27:53.825Z,13.18
2024-02-13T07:30:22.983Z,13.05
2024-02-13T07:32:53.535Z,16.98
2024-02-13T07:35:22.951Z,13.55
2024-02-13T07:37:51.046Z,12.35
2024-02-13T07:40:19.065Z,15.48
2024-02-13T07:42:47.271Z,13.40
2024-02-13T07:45:15.049Z,16.40
2024-02-13T07:47:43.083Z,11.70
2024-02-13T07:50:16.146Z,14.27
2024-02-13T07:52:45.160Z,15.70
2024-02-13T07:55:13.257Z,10.60
2024-02-13T07:57:41.312Z,16.02
2024-02-13T08:00:09.960Z,13.30
2024-02-13T08:02:37.944Z,18.67
2024-02-13T08:05:06.300Z,18.33
2024-02-13T08:07:35.861Z,15.85
2024-02-13T08:10:05.055Z,15.17
2024-02-13T08:12:33.259Z,14.77
2024-02-13T08:15:01.941Z,17.40
2024-02-13T08:17:30.741Z,14.68
2024-02-13T08:20:00.773Z,16.23
2024-02-13T08:22:29.143Z,17.75
2024-02-13T08:25:02.524Z,13.63
2024-02-13T08:27:31.694Z,14.82
2024-02-13T08:29:59.484Z,14.18
2024-02-13T08:32:28.489Z,15.27
2024-02-13T08:34:58.129Z,16.63
2024-02-13T08:37:26.356Z,19.95
2024-02-13T08:39:54.702Z,17.48
2024-02-13T08:42:23.708Z,15.20
2024-02-13T08:44:53.055Z,15.75
2024-02-13T08:47:20.861Z,20.40
2024-02-13T08:49:48.751Z,16.88
2024-02-13T08:52:17.044Z,15.65
2024-02-13T08:54:44.802Z,16.15
2024-02-13T08:57:15.269Z,15.95
2024-02-13T09:02:12.250Z,13.45
2024-02-13T09:04:40.013Z,13.52
2024-02-13T09:07:08.236Z,16.58
2024-02-13T09:09:36.310Z,14.48
2024-02-13T09:12:04.505Z,16.27
2024-02-13T09:14:35.269Z,11.65
2024-02-13T09:17:06.554Z,14.02
2024-02-13T09:19:34.911Z,17.48
2024-02-13T09:22:02.616Z,14.18
2024-02-13T09:24:30.669Z,13.40
2024-02-13T09:26:58.559Z,16.20
2024-02-13T09:29:26.479Z,12.68
2024-02-13T09:31:55.785Z,14.77
2024-02-13T09:34:24.918Z,13.48
2024-02-13T09:36:53.104Z,15.38
2024-02-13T09:39:20.872Z,15.55
2024-02-13T09:41:48.726Z,10.05
2024-02-13T09:44:17.611Z,16.20
2024-02-13T09:46:46.261Z,12.52
2024-02-13T09:49:15.519Z,12.88
2024-02-13T09:51:47.921Z,11.90
2024-02-13T09:54:17.633Z,11.00
2024-02-13T09:56:46.727Z,10.75
2024-02-13T09:59:14.896Z,14.68
2024-02-13T10:01:42.674Z,10.82
2024-02-13T10:04:10.380Z,12.68
2024-02-13T10:06:38.974Z,14.13
2024-02-13T10:09:12.807Z,14.38
2024-02-13T10:11:43.008Z,12.38
2024-02-13T10:14:21.095Z,16.15
2024-02-13T10:16:51.043Z,12.32
2024-02-13T10:19:21.489Z,11.23
2024-02-13T10:24:25.318Z,8.15
2024-02-13T10:26:53.431Z,11.75
2024-02-13T10:29:21.914Z,11.27
2024-02-13T10:31:49.585Z,9.30
2024-02-13T10:34:17.332Z,9.57
2024-02-13T10:36:47.142Z,11.18
2024-02-13T10:39:16.110Z,10.63
2024-02-13T10:41:46.959Z,8.52
2024-02-13T10:44:22.500Z,8.15
2024-02-13T10:46:52.194Z,9.32
2024-02-13T10:49:28.201Z,8.10
2024-02-13T10:51:57.139Z,7.20
2024-02-13T10:54:26.766Z,6.60
2024-02-13T10:56:58.281Z,7.40
2024-02-13T10:59:29.821Z,11.88
2024-02-13T11:02:01.559Z,5.97
2024-02-13T11:04:30.475Z,4.03
2024-02-13T11:06:58.389Z,12.30
2024-02-13T11:09:27.067Z,13.23
2024-02-13T11:11:56.733Z,4.97
2024-02-13T11:14:26.431Z,5.43
2024-02-13T11:16:59.166Z,7.93
2024-02-13T11:19:39.122Z,6.80
2024-02-13T11:22:10.440Z,4.60
2024-02-13T11:24:50.921Z,6.20
2024-02-13T11:27:29.933Z,4.90
2024-02-13T11:30:01.151Z,10.30
2024-02-13T11:32:34.643Z,4.18
2024-02-13T11:35:07.171Z,6.25
2024-02-13T11:37:37.196Z,6.75
2024-02-13T11:40:06.997Z,4.65
2024-02-13T11:42:37.474Z,6.00
2024-02-13T11:47:35.733Z,6.60
2024-02-13T11:50:06.862Z,3.40
2024-02-13T11:52:36.014Z,10.23
2024-02-13T11:55:04.240Z,7.35
2024-02-13T11:57:31.950Z,5.40
2024-02-13T12:00:03.009Z,4.47
2024-02-13T12:02:32.934Z,4.18
2024-02-13T12:05:01.116Z,6.35
2024-02-13T12:07:30.063Z,8.73
2024-02-13T12:09:58.604Z,6.20
2024-02-13T12:12:27.213Z,4.85
2024-02-13T12:14:55.765Z,7.57
2024-02-13T12:17:24.959Z,8.43
2024-02-13T12:19:57.060Z,6.05
2024-02-13T12:22:27.243Z,4.32
2024-02-13T12:24:57.795Z,7.18
2024-02-13T12:27:25.695Z,4.47
2024-02-13T12:29:53.510Z,7.78
2024-02-13T12:32:23.302Z,4.35
2024-02-13T12:34:55.654Z,3.85
2024-02-13T12:37:25.738Z,7.72
2024-02-13T12:39:54.179Z,4.18
2024-02-13T12:42:22.350Z,3.65
2024-02-13T12:44:50.621Z,7.78
2024-02-13T12:47:19.432Z,3.75
2024-02-13T12:49:48.440Z,7.53
2024-02-13T12:52:24.016Z,3.70
2024-02-13T12:54:53.246Z,3.05
2024-02-13T12:57:22.067Z,3.55
2024-02-13T12:59:51.879Z,4.70
2024-02-13T13:04:54.987Z,4.97
2024-02-13T13:07:24.487Z,3.78
2024-02-13T13:09:53.703Z,5.10
2024-02-13T13:12:21.846Z,8.07
2024-02-13T13:14:50.071Z,7.20
2024-02-13T13:17:23.183Z,5.72
2024-02-13T13:19:51.845Z,7.32
2024-02-13T13:22:21.172Z,6.95
2024-02-13T13:24:50.292Z,5.28
2024-02-13T13:27:20.310Z,5.00
2024-02-13T13:29:48.409Z,4.40
2024-02-13T13:32:17.961Z,6.25
2024-02-13T13:34:46.865Z,9.75
2024-02-13T13:37:15.090Z,3.80
2024-02-13T13:39:42.846Z,10.05
2024-02-13T13:42:12.422Z,8.00
2024-02-13T13:44:41.513Z,5.93
2024-02-13T13:47:09.772Z,7.60
2024-02-13T13:49:38.877Z,7.85
2024-02-13T13:52:07.939Z,5.30
2024-02-13T13:54:36.109Z,6.15
2024-02-13T13:57:03.820Z,9.35
2024-02-13T13:59:33.590Z,7.35
2024-02-13T14:02:01.796Z,6.63
2024-02-13T14:04:30.151Z,6.45
2024-02-13T14:06:58.316Z,8.60
2024-02-13T14:09:26.512Z,4.07
2024-02-13T14:11:54.856Z,3.38
2024-02-13T14:14:22.980Z,3.60
2024-02-13T14:16:53.184Z,4.53
2024-02-13T14:19:21.051Z,7.65
2024-02-13T14:21:49.595Z,6.35
2024-02-13T14:24:17.935Z,6.40
2024-02-13T14:26:46.367Z,8.40
2024-02-13T14:29:14.736Z,8.27
2024-02-13T14:31:43.317Z,7.15
2024-02-13T14:34:12.837Z,7.68
2024-02-13T14:36:42.849Z,7.32
2024-02-13T14:39:18.652Z,6.15
2024-02-13T14:41:55.225Z,5.75
2024-02-13T14:44:24.076Z,6.18
2024-02-13T14:46:52.855Z,6.15
2024-02-13T14:49:22.331Z,7.28
2024-02-13T14:51:50.751Z,8.65
2024-02-13T14:54:21.634Z,7.22
2024-02-13T14:56:51.025Z,6.97
2024-02-13T14:59:20.628Z,8.10
2024-02-13T15:01:48.659Z,6.23
2024-02-13T15:04:17.156Z,7.30
2024-02-13T15:06:49.738Z,5.47
2024-02-13T15:09:20.423Z,7.15
2024-02-13T15:11:48.877Z,6.50
2024-02-13T15:14:18.096Z,7.53
2024-02-13T15:16:49.606Z,10.02
2024-02-13T15:19:18.007Z,8.20
2024-02-13T15:21:47.373Z,6.65
2024-02-13T15:24:18.153Z,4.60
2024-02-13T15:26:46.195Z,5.18
2024-02-13T15:29:14.914Z,10.13
2024-02-13T15:31:43.555Z,5.22
2024-02-13T15:34:11.913Z,8.75
2024-02-13T15:36:50.055Z,5.07
2024-02-13T15:39:37.026Z,10.07
2024-02-13T15:42:22.899Z,10.07
2024-02-13T15:45:08.881Z,8.07
2024-02-13T15:47:36.697Z,6.82
2024-02-13T15:50:08.094Z,5.60
2024-02-13T15:52:37.060Z,8.00
2024-02-13T15:55:08.903Z,5.15
2024-02-13T15:57:38.899Z,5.07
2024-02-13T16:00:09.220Z,6.45
2024-02-13T16:02:37.902Z,5.57
2024-02-13T16:05:06.721Z,6.20
2024-02-13T16:07:34.489Z,7.45
2024-02-13T16:10:02.274Z,5.05
2024-02-13T16:12:31.718Z,6.28
2024-02-13T16:14:59.587Z,10.30
2024-02-13T16:17:27.417Z,5.78
2024-02-13T16:19:56.467Z,10.68
2024-02-13T16:22:25.150Z,4.43
2024-02-13T16:24:55.266Z,9.43
2024-02-13T16:27:23.495Z,4.07
2024-02-13T16:29:53.086Z,5.93
2024-02-13T16:32:32.646Z,8.00
2024-02-13T16:35:07.084Z,6.75
2024-02-13T16:37:35.681Z,4.72
2024-02-13T16:40:05.002Z,9.00
2024-02-13T16:42:33.981Z,5.50
2024-02-13T16:47:53.875Z,7.20
2024-02-13T16:50:21.994Z,10.70
2024-02-13T16:52:50.008Z,10.65
2024-02-13T16:55:18.709Z,7.07
2024-02-13T16:57:47.405Z,9.60
2024-02-13T17:00:17.768Z,7.68
2024-02-13T17:02:46.886Z,7.07
2024-02-13T17:05:14.864Z,9.10
2024-02-13T17:07:43.726Z,7.47
2024-02-13T17:10:13.439Z,7.68
2024-02-13T17:12:44.485Z,9.40
2024-02-13T17:15:15.306Z,7.72
2024-02-13T17:17:45.792Z,8.43
2024-02-13T17:20:14.280Z,10.77
2024-02-13T17:22:44.029Z,8.63
2024-02-13T17:25:13.079Z,9.20
2024-02-13T17:27:42.614Z,8.90
2024-02-13T17:30:13.837Z,8.93
2024-02-13T17:32:45.413Z,11.02
2024-02-13T17:35:15.235Z,11.77
2024-02-13T17:37:43.117Z,13.82
2024-02-13T17:40:14.545Z,8.80
2024-02-13T17:42:42.803Z,7.38
2024-02-13T17:45:11.328Z,8.93
2024-02-13T17:47:40.032Z,6.82
2024-02-13T17:50:10.470Z,9.25
2024-02-13T17:52:40.321Z,10.70
2024-02-13T17:55:10.380Z,9.48
2024-02-13T18:00:11.758Z,11.90
2024-02-13T18:02:40.471Z,9.20
2024-02-13T18:05:09.791Z,9.32
2024-02-13T18:07:39.187Z,11.57
2024-02-13T18:10:09.398Z,8.90
2024-02-13T18:12:41.616Z,14.00
2024-02-13T18:15:11.915Z,7.70
2024-02-13T18:17:40.477Z,11.55
2024-02-13T18:20:15.339Z,11.45
2024-02-13T18:22:46.272Z,8.65
2024-02-13T18:25:14.542Z,8.90
2024-02-13T18:27:42.636Z,11.18
2024-02-13T18:30:11.174Z,10.02
2024-02-13T18:32:39.448Z,12.77
2024-02-13T18:35:08.154Z,14.07
2024-02-13T18:37:35.929Z,8.13
2024-02-13T18:40:05.854Z,12.35
2024-02-13T18:42:33.593Z,7.75
2024-02-13T18:45:02.066Z,7.07
2024-02-13T18:47:30.471Z,9.45
2024-02-13T18:49:58.630Z,10.70
2024-02-13T18:52:28.135Z,15.85
2024-02-13T18:54:55.976Z,10.38
2024-02-13T18:57:25.088Z,17.20
2024-02-13T18:59:52.914Z,15.30
2024-02-13T19:02:21.400Z,9.07
2024-02-13T19:04:49.783Z,8.10
2024-02-13T19:07:17.599Z,9.77
2024-02-13T19:09:45.895Z,9.48
2024-02-13T19:12:13.666Z,11.10
2024-02-13T19:14:44.191Z,10.13
2024-02-13T19:19:39.760Z,13.57
2024-02-13T19:22:07.822Z,9.95
2024-02-13T19:24:35.956Z,10.23
2024-02-13T19:27:04.043Z,10.25
2024-02-13T19:29:31.953Z,10.43
2024-02-13T19:32:01.393Z,9.88
2024-02-13T19:34:29.350Z,10.80
2024-02-13T19:36:57.964Z,14.35
2024-02-13T19:39:26.095Z,12.57
2024-02-13T19:41:54.255Z,11.52
2024-02-13T19:44:23.639Z,14.50
2024-02-13T19:46:51.382Z,12.00
2024-02-13T19:49:21.244Z,16.25
2024-02-13T19:51:49.280Z,16.83
2024-02-13T19:54:16.992Z,13.85
2024-02-13T19:56:47.283Z,13.85
2024-02-13T19:59:17.253Z,11.73
2024-02-13T20:01:45.240Z,10.80
2024-02-13T20:04:13.459Z,12.23
2024-02-13T20:06:43.037Z,14.82
2024-02-13T20:09:10.882Z,10.57
2024-02-13T20:11:40.311Z,11.88
2024-02-13T20:14:08.069Z,12.30
2024-02-13T20:16:39.000Z,10.20
2024-02-13T20:19:06.865Z,14.23
2024-02-13T20:21:37.017Z,9.35
2024-02-13T20:24:07.155Z,12.50
2024-02-13T20:26:35.214Z,13.07
2024-02-13T20:29:03.337Z,12.82
2024-02-13T20:31:33.557Z,10.68
2024-02-13T20:34:01.533Z,18.05
2024-02-13T20:36:30.773Z,14.20
2024-02-13T20:39:12.905Z,11.10
2024-02-13T20:41:42.783Z,10.98
2024-02-13T20:44:10.811Z,11.30
2024-02-13T20:46:39.107Z,14.52
2024-02-13T20:49:09.563Z,16.55
2024-02-13T20:51:37.609Z,12.18
2024-02-13T20:54:07.117Z,17.58
2024-02-13T20:56:36.682Z,13.30
2024-02-13T20:59:04.685Z,11.90
2024-02-13T21:01:36.539Z,15.65
2024-02-13T21:04:05.935Z,16.25
2024-02-13T21:06:33.828Z,12.75
2024-02-13T21:09:01.982Z,16.15
2024-02-13T21:11:29.731Z,9.82
2024-02-13T21:14:00.525Z,12.23
2024-02-13T21:16:30.603Z,14.98
2024-02-13T21:18:58.622Z,13.57
2024-02-13T21:21:44.203Z,12.23
2024-02-13T21:24:14.009Z,13.00
2024-02-13T21:26:42.288Z,12.25
2024-02-13T21:29:11.673Z,11.30
2024-02-13T21:31:41.049Z,11.40
2024-02-13T21:34:09.311Z,10.80
2024-02-13T21:36:37.223Z,15.90
2024-02-13T21:39:09.366Z,13.93
2024-02-13T21:41:39.242Z,13.13
2024-02-13T21:44:07.418Z,15.20
2024-02-13T21:46:36.482Z,13.45
2024-02-13T21:49:04.353Z,12.95
2024-02-13T21:51:32.474Z,15.50
2024-02-13T21:54:00.802Z,17.75
2024-02-13T21:56:28.637Z,13.40
2024-02-13T21:58:57.317Z,14.45
2024-02-13T22:01:25.293Z,16.48
2024-02-13T22:03:57.292Z,13.85
2024-02-13T22:06:27.061Z,13.48
2024-02-13T22:08:54.940Z,13.45
2024-02-13T22:11:22.746Z,13.77
2024-02-13T22:13:51.136Z,15.55
2024-02-13T22:16:18.838Z,11.52
2024-02-13T22:18:47.094Z,12.88
2024-02-13T22:21:16.823Z,16.45
2024-02-13T22:23:46.342Z,17.23
2024-02-13T22:26:14.886Z,17.83
2024-02-13T22:28:43.072Z,16.35
2024-02-13T22:31:11.148Z,19.45
2024-02-13T22:33:38.904Z,17.00
2024-02-13T22:36:08.221Z,18.73
2024-02-13T22:38:37.380Z,14.90
2024-02-13T22:41:05.950Z,28.77
2024-02-13T22:43:34.264Z,18.65
2024-02-13T22:46:02.013Z,14.85
2024-02-13T22:48:29.849Z,13.00
2024-02-13T22:50:57.945Z,15.45
2024-02-13T22:53:26.220Z,14.80
2024-02-13T22:55:55.660Z,18.65
2024-02-13T22:58:23.456Z,16.95
2024-02-13T23:00:54.870Z,15.90
2024-02-13T23:03:22.937Z,16.75
2024-02-13T23:05:55.337Z,15.90
2024-02-13T23:08:23.484Z,16.42
2024-02-13T23:10:51.584Z,33.90
2024-02-13T23:13:21.342Z,18.60
2024-02-13T23:15:49.634Z,17.77
2024-02-13T23:18:19.027Z,19.98
2024-02-13T23:20:47.683Z,13.55
2024-02-13T23:23:16.989Z,16.00
2024-02-13T23:25:44.882Z,19.00
2024-02-13T23:28:14.353Z,19.40
2024-02-13T23:33:13.574Z,17.45
2024-02-13T23:35:43.200Z,15.13
2024-02-13T23:38:10.957Z,15.77
2024-02-13T23:40:39.012Z,16.92
2024-02-13T23:43:08.056Z,18.63
2024-02-13T23:45:35.964Z,17.27
2024-02-13T23:48:05.688Z,18.05
2024-02-13T23:50:33.998Z,17.77
2024-02-13T23:53:02.060Z,15.55
2024-02-13T23:55:29.854Z,21.75
2024-02-13T23:57:57.961Z,14.32
